createdAt,value
2022-11-17T10:40:32.200Z,986.24
2022-11-17T10:41:32.175Z,986.33
2022-11-17T10:42:32.180Z,986.3
2022-11-17T10:43:32.293Z,986.28
2022-11-17T10:44:32.185Z,986.33
2022-11-17T10:45:32.195Z,986.33
2022-11-17T10:46:41.689Z,986.31
2022-11-17T10:47:32.202Z,986.28
2022-11-17T10:48:32.208Z,986.36
2022-11-17T10:49:32.213Z,986.33
2022-11-17T10:50:32.224Z,986.33
2022-11-17T10:51:32.220Z,986.32
2022-11-17T10:52:32.237Z,986.33
2022-11-17T10:53:32.373Z,986.34
2022-11-17T10:54:32.248Z,986.38
2022-11-17T10:55:32.241Z,986.32
2022-11-17T10:56:32.297Z,986.4
2022-11-17T10:57:32.259Z,986.34
2022-11-17T10:58:32.391Z,986.32
2022-11-17T10:59:32.273Z,986.33
2022-11-17T11:00:32.302Z,986.32
2022-11-17T11:01:32.366Z,986.23
2022-11-17T11:02:32.287Z,986.26
2022-11-17T11:03:32.434Z,986.28
2022-11-17T11:04:32.295Z,986.26
2022-11-17T11:05:32.304Z,986.23
2022-11-17T11:06:32.301Z,986.17
2022-11-17T11:07:32.368Z,986.17
2022-11-17T11:08:32.322Z,986.17
2022-11-17T11:09:32.314Z,986.15
2022-11-17T11:10:32.318Z,986.16
2022-11-17T11:11:36.196Z,986.13
2022-11-17T11:12:32.356Z,986.14
2022-11-17T11:13:32.346Z,986.18
2022-11-17T11:14:32.343Z,986.08
2022-11-17T11:15:32.471Z,986.03
2022-11-17T11:16:32.473Z,986
2022-11-17T11:17:32.357Z,986.03
2022-11-17T11:18:32.365Z,986.01
2022-11-17T11:19:32.372Z,986.05
2022-11-17T11:20:32.374Z,986.05
2022-11-17T11:21:32.381Z,986.08
2022-11-17T11:22:32.385Z,986.06
2022-11-17T11:23:32.384Z,986.07
2022-11-17T11:24:32.403Z,986.15
2022-11-17T11:25:32.399Z,986.11
2022-11-17T11:26:32.413Z,986.07
2022-11-17T11:27:32.420Z,986.06
2022-11-17T11:28:32.444Z,985.99
2022-11-17T11:29:32.426Z,985.98
2022-11-17T11:30:32.427Z,985.93
2022-11-17T11:31:32.437Z,985.93
2022-11-17T11:32:32.440Z,985.95
2022-11-17T11:33:32.432Z,985.96
2022-11-17T11:34:32.452Z,986.01
2022-11-17T11:35:32.461Z,985.92
2022-11-17T11:36:32.462Z,985.85
2022-11-17T11:37:32.462Z,985.91
2022-11-17T11:38:32.479Z,985.9
2022-11-17T11:39:32.481Z,985.89
2022-11-17T11:40:32.484Z,985.95
2022-11-17T11:41:32.484Z,985.91
2022-11-17T11:42:32.487Z,985.79
2022-11-17T11:43:32.496Z,985.83
2022-11-17T11:44:32.534Z,985.78
2022-11-17T11:45:32.499Z,985.73
2022-11-17T11:46:32.950Z,985.71
2022-11-17T11:47:32.560Z,985.73
2022-11-17T11:48:32.553Z,985.68
2022-11-17T11:49:32.591Z,985.79
2022-11-17T11:50:34.509Z,985.73
2022-11-17T11:51:32.528Z,985.73
2022-11-17T11:52:32.546Z,985.77
2022-11-17T11:53:32.539Z,985.76
2022-11-17T11:54:32.553Z,985.73
2022-11-17T11:55:32.564Z,985.74
2022-11-17T11:56:32.559Z,985.77
2022-11-17T11:57:32.565Z,985.75
2022-11-17T11:58:32.574Z,985.67
2022-11-17T11:59:32.584Z,985.64
2022-11-17T12:00:32.614Z,985.65
2022-11-17T12:01:32.620Z,985.63
2022-11-17T12:02:32.638Z,985.7
2022-11-17T12:03:32.667Z,985.71
2022-11-17T12:04:32.604Z,985.65
2022-11-17T12:05:32.607Z,985.64
2022-11-17T12:06:32.617Z,985.58
2022-11-17T12:07:32.663Z,985.6
2022-11-17T12:08:32.691Z,985.55
2022-11-17T12:09:32.626Z,985.63
2022-11-17T12:10:32.641Z,985.61
2022-11-17T12:11:32.641Z,985.59
2022-11-17T12:12:32.651Z,985.62
2022-11-17T12:13:32.678Z,985.66
2022-11-17T12:14:32.661Z,985.62
2022-11-17T12:15:32.669Z,985.6
2022-11-17T12:16:32.703Z,985.63
2022-11-17T12:17:32.664Z,985.62
2022-11-17T12:18:32.673Z,985.67
2022-11-17T12:19:32.680Z,985.61
2022-11-17T12:20:32.889Z,985.62
2022-11-17T12:21:32.732Z,985.58
2022-11-17T12:22:32.787Z,985.61
2022-11-17T12:23:32.946Z,985.62
2022-11-17T12:24:32.717Z,985.52
